sensor_id;sensor_type;location;lat;lon;timestamp;temperature;humidity
52675;DHT22;38569;52.722;6.440;2022-09-21T00:00:25;5.60;99.90
52675;DHT22;38569;52.722;6.440;2022-09-21T00:02:54;5.60;99.90
52675;DHT22;38569;52.722;6.440;2022-09-21T00:05:20;5.50;99.90
52675;DHT22;38569;52.722;6.440;2022-09-21T00:07:45;5.50;99.90
52675;DHT22;38569;52.722;6.440;2022-09-21T00:10:11;5.50;99.90
52675;DHT22;38569;52.722;6.440;2022-09-21T00:12:37;5.50;99.90
52675;DHT22;38569;52.722;6.440;2022-09-21T00:15:09;5.50;99.90
52675;DHT22;38569;52.722;6.440;2022-09-21T00:17:36;5.50;99.90
52675;DHT22;38569;52.722;6.440;2022-09-21T00:20:03;5.50;99.90
52675;DHT22;38569;52.722;6.440;2022-09-21T00:22:32;5.50;99.90
52675;DHT22;38569;52.722;6.440;2022-09-21T00:24:58;5.50;99.90
52675;DHT22;38569;52.722;6.440;2022-09-21T00:27:28;5.50;99.90
52675;DHT22;38569;52.722;6.440;2022-09-21T00:29:58;5.50;99.90
52675;DHT22;38569;52.722;6.440;2022-09-21T00:32:27;5.50;99.90
52675;DHT22;38569;52.722;6.440;2022-09-21T00:34:56;5.40;99.90
52675;DHT22;38569;52.722;6.440;2022-09-21T00:37:23;5.40;99.90
52675;DHT22;38569;52.722;6.440;2022-09-21T00:39:49;5.40;99.90
52675;DHT22;38569;52.722;6.440;2022-09-21T00:42:37;5.40;99.90
52675;DHT22;38569;52.722;6.440;2022-09-21T00:45:04;5.40;99.90
52675;DHT22;38569;52.722;6.440;2022-09-21T00:47:37;5.40;99.90
52675;DHT22;38569;52.722;6.440;2022-09-21T00:50:11;5.40;99.90
52675;DHT22;38569;52.722;6.440;2022-09-21T00:52:42;5.30;99.90
52675;DHT22;38569;52.722;6.440;2022-09-21T00:57:52;5.20;99.90
52675;DHT22;38569;52.722;6.440;2022-09-21T01:00:19;5.20;99.90
52675;DHT22;38569;52.722;6.440;2022-09-21T01:02:46;5.20;99.90
52675;DHT22;38569;52.722;6.440;2022-09-21T01:05:12;5.30;99.90
52675;DHT22;38569;52.722;6.440;2022-09-21T01:07:42;5.30;99.90
52675;DHT22;38569;52.722;6.440;2022-09-21T01:10:11;5.30;99.90
52675;DHT22;38569;52.722;6.440;2022-09-21T01:15:34;5.30;99.90
52675;DHT22;38569;52.722;6.440;2022-09-21T01:18:20;5.20;99.90
52675;DHT22;38569;52.722;6.440;2022-09-21T01:23:47;5.20;99.90
52675;DHT22;38569;52.722;6.440;2022-09-21T01:26:35;5.20;99.90
52675;DHT22;38569;52.722;6.440;2022-09-21T01:32:08;5.20;99.90
52675;DHT22;38569;52.722;6.440;2022-09-21T01:38:24;5.10;99.90
52675;DHT22;38569;52.722;6.440;2022-09-21T01:40:54;5.00;99.90
52675;DHT22;38569;52.722;6.440;2022-09-21T01:43:27;4.90;99.90
52675;DHT22;38569;52.722;6.440;2022-09-21T01:45:55;4.90;99.90
52675;DHT22;38569;52.722;6.440;2022-09-21T01:48:23;4.90;99.90
52675;DHT22;38569;52.722;6.440;2022-09-21T01:50:53;4.80;99.90
52675;DHT22;38569;52.722;6.440;2022-09-21T01:55:59;4.80;99.90
52675;DHT22;38569;52.722;6.440;2022-09-21T02:01:19;4.70;99.90
52675;DHT22;38569;52.722;6.440;2022-09-21T02:04:09;4.70;99.90
52675;DHT22;38569;52.722;6.440;2022-09-21T02:06:38;4.70;99.90
52675;DHT22;38569;52.722;6.440;2022-09-21T02:09:06;4.70;99.90
52675;DHT22;38569;52.722;6.440;2022-09-21T02:11:33;4.70;99.90
52675;DHT22;38569;52.722;6.440;2022-09-21T02:13:59;4.70;99.90
52675;DHT22;38569;52.722;6.440;2022-09-21T02:26:38;4.70;99.90
52675;DHT22;38569;52.722;6.440;2022-09-21T02:29:23;4.70;99.90
52675;DHT22;38569;52.722;6.440;2022-09-21T02:31:55;4.70;99.90
52675;DHT22;38569;52.722;6.440;2022-09-21T02:37:16;4.70;99.90
52675;DHT22;38569;52.722;6.440;2022-09-21T02:39:57;4.70;99.90
52675;DHT22;38569;52.722;6.440;2022-09-21T02:42:28;4.60;99.90
52675;DHT22;38569;52.722;6.440;2022-09-21T02:45:19;4.60;99.90
52675;DHT22;38569;52.722;6.440;2022-09-21T02:47:57;4.70;99.90
52675;DHT22;38569;52.722;6.440;2022-09-21T02:50:46;4.60;99.90
52675;DHT22;38569;52.722;6.440;2022-09-21T02:53:16;4.60;99.90
52675;DHT22;38569;52.722;6.440;2022-09-21T02:55:43;4.50;99.90
52675;DHT22;38569;52.722;6.440;2022-09-21T02:58:12;4.50;99.90
52675;DHT22;38569;52.722;6.440;2022-09-21T03:00:40;4.50;99.90
52675;DHT22;38569;52.722;6.440;2022-09-21T03:03:20;4.40;99.90
52675;DHT22;38569;52.722;6.440;2022-09-21T03:05:50;4.40;99.90
52675;DHT22;38569;52.722;6.440;2022-09-21T03:08:17;4.30;99.90
52675;DHT22;38569;52.722;6.440;2022-09-21T03:10:43;4.30;99.90
52675;DHT22;38569;52.722;6.440;2022-09-21T03:13:09;4.30;99.90
52675;DHT22;38569;52.722;6.440;2022-09-21T03:15:36;4.40;99.90
52675;DHT22;38569;52.722;6.440;2022-09-21T03:18:05;4.40;99.90
52675;DHT22;38569;52.722;6.440;2022-09-21T03:20:34;4.40;99.90
52675;DHT22;38569;52.722;6.440;2022-09-21T03:23:01;4.40;99.90
52675;DHT22;38569;52.722;6.440;2022-09-21T03:25:28;4.40;99.90
52675;DHT22;38569;52.722;6.440;2022-09-21T03:27:54;4.40;99.90
52675;DHT22;38569;52.722;6.440;2022-09-21T03:30:21;4.40;99.90
52675;DHT22;38569;52.722;6.440;2022-09-21T03:32:51;4.30;99.90
52675;DHT22;38569;52.722;6.440;2022-09-21T03:35:18;4.30;99.90
52675;DHT22;38569;52.722;6.440;2022-09-21T03:37:44;4.30;99.90
52675;DHT22;38569;52.722;6.440;2022-09-21T03:40:10;4.30;99.90
52675;DHT22;38569;52.722;6.440;2022-09-21T03:42:38;4.20;99.90
52675;DHT22;38569;52.722;6.440;2022-09-21T03:45:04;4.20;99.90
52675;DHT22;38569;52.722;6.440;2022-09-21T03:47:30;4.20;99.90
52675;DHT22;38569;52.722;6.440;2022-09-21T03:49:56;4.20;99.90
52675;DHT22;38569;52.722;6.440;2022-09-21T03:52:22;4.20;99.90
52675;DHT22;38569;52.722;6.440;2022-09-21T03:54:48;4.20;99.90
52675;DHT22;38569;52.722;6.440;2022-09-21T03:57:13;4.20;99.90
52675;DHT22;38569;52.722;6.440;2022-09-21T03:59:39;4.10;99.90
52675;DHT22;38569;52.722;6.440;2022-09-21T04:02:06;4.10;99.90
52675;DHT22;38569;52.722;6.440;2022-09-21T04:04:32;4.10;99.90
52675;DHT22;38569;52.722;6.440;2022-09-21T04:06:58;4.10;99.90
52675;DHT22;38569;52.722;6.440;2022-09-21T04:09:24;4.10;99.90
52675;DHT22;38569;52.722;6.440;2022-09-21T04:11:50;4.10;99.90
52675;DHT22;38569;52.722;6.440;2022-09-21T04:14:17;4.10;99.90
52675;DHT22;38569;52.722;6.440;2022-09-21T04:16:43;4.00;99.90
52675;DHT22;38569;52.722;6.440;2022-09-21T04:19:09;4.00;99.90
52675;DHT22;38569;52.722;6.440;2022-09-21T04:21:35;4.00;99.90
52675;DHT22;38569;52.722;6.440;2022-09-21T04:24:01;4.00;99.90
52675;DHT22;38569;52.722;6.440;2022-09-21T04:26:29;4.00;99.90
52675;DHT22;38569;52.722;6.440;2022-09-21T04:28:56;4.00;99.90
52675;DHT22;38569;52.722;6.440;2022-09-21T04:31:22;4.10;99.90
52675;DHT22;38569;52.722;6.440;2022-09-21T04:33:49;4.10;99.90
52675;DHT22;38569;52.722;6.440;2022-09-21T04:36:16;4.10;99.90
52675;DHT22;38569;52.722;6.440;2022-09-21T04:38:42;4.10;99.90
52675;DHT22;38569;52.722;6.440;2022-09-21T04:41:08;4.10;99.90
52675;DHT22;38569;52.722;6.440;2022-09-21T04:43:34;4.20;99.90
52675;DHT22;38569;52.722;6.440;2022-09-21T04:46:05;4.10;99.90
52675;DHT22;38569;52.722;6.440;2022-09-21T04:48:30;4.10;99.90
52675;DHT22;38569;52.722;6.440;2022-09-21T04:50:56;4.00;99.90
52675;DHT22;38569;52.722;6.440;2022-09-21T04:53:22;4.00;99.90
52675;DHT22;38569;52.722;6.440;2022-09-21T04:55:48;4.00;99.90
52675;DHT22;38569;52.722;6.440;2022-09-21T04:58:14;4.00;99.90
52675;DHT22;38569;52.722;6.440;2022-09-21T05:00:39;4.00;99.90
52675;DHT22;38569;52.722;6.440;2022-09-21T05:03:05;3.90;99.90
52675;DHT22;38569;52.722;6.440;2022-09-21T05:05:31;3.90;99.90
52675;DHT22;38569;52.722;6.440;2022-09-21T05:07:57;3.80;99.90
52675;DHT22;38569;52.722;6.440;2022-09-21T05:10:23;3.80;99.90
52675;DHT22;38569;52.722;6.440;2022-09-21T05:12:49;3.80;99.90
52675;DHT22;38569;52.722;6.440;2022-09-21T05:15:16;3.80;99.90
52675;DHT22;38569;52.722;6.440;2022-09-21T05:17:43;3.90;99.90
52675;DHT22;38569;52.722;6.440;2022-09-21T05:20:09;3.90;99.90
52675;DHT22;38569;52.722;6.440;2022-09-21T05:22:35;3.90;99.90
52675;DHT22;38569;52.722;6.440;2022-09-21T05:25:02;3.80;99.90
52675;DHT22;38569;52.722;6.440;2022-09-21T05:27:27;3.80;99.90
52675;DHT22;38569;52.722;6.440;2022-09-21T05:29:53;3.80;99.90
52675;DHT22;38569;52.722;6.440;2022-09-21T05:38:04;3.80;99.90
52675;DHT22;38569;52.722;6.440;2022-09-21T05:40:32;3.80;99.90
52675;DHT22;38569;52.722;6.440;2022-09-21T05:42:58;3.80;99.90
52675;DHT22;38569;52.722;6.440;2022-09-21T05:45:24;3.90;99.90
52675;DHT22;38569;52.722;6.440;2022-09-21T05:47:57;3.90;99.90
52675;DHT22;38569;52.722;6.440;2022-09-21T05:50:44;4.00;99.90
52675;DHT22;38569;52.722;6.440;2022-09-21T05:53:32;4.00;99.90
52675;DHT22;38569;52.722;6.440;2022-09-21T05:56:13;4.00;99.90
52675;DHT22;38569;52.722;6.440;2022-09-21T06:04:03;3.90;99.90
52675;DHT22;38569;52.722;6.440;2022-09-21T06:06:29;3.90;99.90
52675;DHT22;38569;52.722;6.440;2022-09-21T06:08:55;3.90;99.90
52675;DHT22;38569;52.722;6.440;2022-09-21T06:11:21;3.90;99.90
52675;DHT22;38569;52.722;6.440;2022-09-21T06:13:46;3.90;99.90
52675;DHT22;38569;52.722;6.440;2022-09-21T06:16:12;3.90;99.90
52675;DHT22;38569;52.722;6.440;2022-09-21T06:18:39;4.00;99.90
52675;DHT22;38569;52.722;6.440;2022-09-21T06:21:06;4.10;99.90
52675;DHT22;38569;52.722;6.440;2022-09-21T06:23:32;4.20;99.90
52675;DHT22;38569;52.722;6.440;2022-09-21T06:25:58;4.10;99.90
52675;DHT22;38569;52.722;6.440;2022-09-21T06:28:24;4.20;99.90
52675;DHT22;38569;52.722;6.440;2022-09-21T06:30:51;4.20;99.90
52675;DHT22;38569;52.722;6.440;2022-09-21T06:33:17;4.30;99.90
52675;DHT22;38569;52.722;6.440;2022-09-21T06:35:56;4.30;99.90
52675;DHT22;38569;52.722;6.440;2022-09-21T06:38:23;4.40;99.90
52675;DHT22;38569;52.722;6.440;2022-09-21T06:40:50;4.60;99.90
52675;DHT22;38569;52.722;6.440;2022-09-21T06:43:16;4.70;99.90
52675;DHT22;38569;52.722;6.440;2022-09-21T06:45:42;4.80;99.90
52675;DHT22;38569;52.722;6.440;2022-09-21T06:48:08;5.00;99.90
52675;DHT22;38569;52.722;6.440;2022-09-21T06:50:34;5.20;99.90
52675;DHT22;38569;52.722;6.440;2022-09-21T06:53:01;5.50;99.90
52675;DHT22;38569;52.722;6.440;2022-09-21T06:55:28;5.80;99.90
52675;DHT22;38569;52.722;6.440;2022-09-21T06:57:59;6.00;99.90
52675;DHT22;38569;52.722;6.440;2022-09-21T07:00:26;6.20;99.90
52675;DHT22;38569;52.722;6.440;2022-09-21T07:02:52;6.50;99.90
52675;DHT22;38569;52.722;6.440;2022-09-21T07:05:17;6.70;99.90
52675;DHT22;38569;52.722;6.440;2022-09-21T07:07:43;6.90;99.90
52675;DHT22;38569;52.722;6.440;2022-09-21T07:10:09;7.20;99.90
52675;DHT22;38569;52.722;6.440;2022-09-21T07:12:35;7.40;99.90
52675;DHT22;38569;52.722;6.440;2022-09-21T07:15:02;7.60;99.90
52675;DHT22;38569;52.722;6.440;2022-09-21T07:17:36;7.80;99.90
52675;DHT22;38569;52.722;6.440;2022-09-21T07:20:03;8.10;99.90
52675;DHT22;38569;52.722;6.440;2022-09-21T07:22:33;8.20;99.90
52675;DHT22;38569;52.722;6.440;2022-09-21T07:24:59;8.20;99.90
52675;DHT22;38569;52.722;6.440;2022-09-21T07:27:25;8.30;99.90
52675;DHT22;38569;52.722;6.440;2022-09-21T07:29:51;8.40;99.90
52675;DHT22;38569;52.722;6.440;2022-09-21T07:32:17;8.50;99.90
52675;DHT22;38569;52.722;6.440;2022-09-21T07:34:43;8.70;99.90
52675;DHT22;38569;52.722;6.440;2022-09-21T07:37:10;8.80;99.90
52675;DHT22;38569;52.722;6.440;2022-09-21T07:39:35;8.90;99.90
52675;DHT22;38569;52.722;6.440;2022-09-21T07:42:04;9.10;99.90
52675;DHT22;38569;52.722;6.440;2022-09-21T07:44:29;9.20;99.90
52675;DHT22;38569;52.722;6.440;2022-09-21T07:46:55;9.40;99.90
52675;DHT22;38569;52.722;6.440;2022-09-21T07:49:21;9.50;99.90
52675;DHT22;38569;52.722;6.440;2022-09-21T07:51:47;9.60;99.90
52675;DHT22;38569;52.722;6.440;2022-09-21T07:54:12;9.70;99.90
52675;DHT22;38569;52.722;6.440;2022-09-21T07:56:40;9.80;99.90
52675;DHT22;38569;52.722;6.440;2022-09-21T07:59:07;9.90;99.90
52675;DHT22;38569;52.722;6.440;2022-09-21T08:01:37;10.00;99.90
52675;DHT22;38569;52.722;6.440;2022-09-21T08:04:04;10.10;99.90
52675;DHT22;38569;52.722;6.440;2022-09-21T08:06:32;10.20;99.90
52675;DHT22;38569;52.722;6.440;2022-09-21T08:09:04;10.30;99.90
52675;DHT22;38569;52.722;6.440;2022-09-21T08:11:31;10.50;99.90
52675;DHT22;38569;52.722;6.440;2022-09-21T08:14:01;10.60;99.90
52675;DHT22;38569;52.722;6.440;2022-09-21T08:16:29;10.70;99.90
52675;DHT22;38569;52.722;6.440;2022-09-21T08:18:55;10.80;99.90
52675;DHT22;38569;52.722;6.440;2022-09-21T08:21:21;10.80;99.90
52675;DHT22;38569;52.722;6.440;2022-09-21T08:23:50;10.90;99.90
52675;DHT22;38569;52.722;6.440;2022-09-21T08:26:18;11.10;99.90
52675;DHT22;38569;52.722;6.440;2022-09-21T08:28:45;11.20;99.90
52675;DHT22;38569;52.722;6.440;2022-09-21T08:31:14;11.20;99.90
52675;DHT22;38569;52.722;6.440;2022-09-21T08:33:41;11.30;99.90
52675;DHT22;38569;52.722;6.440;2022-09-21T08:36:08;11.50;99.90
52675;DHT22;38569;52.722;6.440;2022-09-21T08:38:36;11.60;99.90
52675;DHT22;38569;52.722;6.440;2022-09-21T08:41:12;11.70;99.90
52675;DHT22;38569;52.722;6.440;2022-09-21T08:43:43;11.80;99.90
52675;DHT22;38569;52.722;6.440;2022-09-21T08:46:16;11.90;99.90
52675;DHT22;38569;52.722;6.440;2022-09-21T08:51:23;12.00;99.90
52675;DHT22;38569;52.722;6.440;2022-09-21T08:54:00;12.10;99.90
52675;DHT22;38569;52.722;6.440;2022-09-21T08:56:28;12.20;99.90
52675;DHT22;38569;52.722;6.440;2022-09-21T08:58:55;12.30;99.90
52675;DHT22;38569;52.722;6.440;2022-09-21T09:01:50;12.40;99.90
52675;DHT22;38569;52.722;6.440;2022-09-21T09:04:35;12.50;99.90
52675;DHT22;38569;52.722;6.440;2022-09-21T09:10:30;12.70;99.90
52675;DHT22;38569;52.722;6.440;2022-09-21T09:21:31;13.10;99.90
52675;DHT22;38569;52.722;6.440;2022-09-21T09:24:31;13.10;99.90
52675;DHT22;38569;52.722;6.440;2022-09-21T09:35:48;13.50;99.90
52675;DHT22;38569;52.722;6.440;2022-09-21T09:50:07;14.20;99.90
52675;DHT22;38569;52.722;6.440;2022-09-21T09:52:33;15.10;99.90
52675;DHT22;38569;52.722;6.440;2022-09-21T09:57:38;18.70;99.90
52675;DHT22;38569;52.722;6.440;2022-09-21T10:00:06;19.90;99.90
52675;DHT22;38569;52.722;6.440;2022-09-21T10:02:55;20.30;99.90
52675;DHT22;38569;52.722;6.440;2022-09-21T10:05:33;21.00;99.90
52675;DHT22;38569;52.722;6.440;2022-09-21T10:08:00;22.00;99.90
52675;DHT22;38569;52.722;6.440;2022-09-21T10:10:35;22.80;99.40
52675;DHT22;38569;52.722;6.440;2022-09-21T10:13:07;22.10;95.80
52675;DHT22;38569;52.722;6.440;2022-09-21T10:15:43;21.20;97.60
52675;DHT22;38569;52.722;6.440;2022-09-21T10:21:25;22.50;93.50
52675;DHT22;38569;52.722;6.440;2022-09-21T10:24:04;23.40;89.30
52675;DHT22;38569;52.722;6.440;2022-09-21T10:26:34;24.40;83.60
52675;DHT22;38569;52.722;6.440;2022-09-21T10:29:27;25.30;80.50
52675;DHT22;38569;52.722;6.440;2022-09-21T10:34:38;26.30;73.90
52675;DHT22;38569;52.722;6.440;2022-09-21T10:37:43;27.10;69.60
52675;DHT22;38569;52.722;6.440;2022-09-21T10:42:42;27.70;63.00
52675;DHT22;38569;52.722;6.440;2022-09-21T10:45:19;27.90;62.20
52675;DHT22;38569;52.722;6.440;2022-09-21T10:47:51;27.60;59.10
52675;DHT22;38569;52.722;6.440;2022-09-21T10:50:29;27.60;58.00
52675;DHT22;38569;52.722;6.440;2022-09-21T10:55:37;26.90;58.40
52675;DHT22;38569;52.722;6.440;2022-09-21T10:58:11;27.00;58.30
52675;DHT22;38569;52.722;6.440;2022-09-21T11:00:46;26.90;58.90
52675;DHT22;38569;52.722;6.440;2022-09-21T11:05:55;27.40;56.80
52675;DHT22;38569;52.722;6.440;2022-09-21T11:08:29;27.50;57.20
52675;DHT22;38569;52.722;6.440;2022-09-21T11:16:44;26.90;57.30
52675;DHT22;38569;52.722;6.440;2022-09-21T11:19:19;27.50;56.60
52675;DHT22;38569;52.722;6.440;2022-09-21T11:24:58;28.10;52.90
52675;DHT22;38569;52.722;6.440;2022-09-21T11:27:40;28.40;51.70
52675;DHT22;38569;52.722;6.440;2022-09-21T11:30:17;28.20;52.50
52675;DHT22;38569;52.722;6.440;2022-09-21T11:38:43;28.60;50.90
52675;DHT22;38569;52.722;6.440;2022-09-21T11:44:03;28.90;51.90
52675;DHT22;38569;52.722;6.440;2022-09-21T11:54:52;28.40;51.40
52675;DHT22;38569;52.722;6.440;2022-09-21T12:00:17;28.80;50.30
52675;DHT22;38569;52.722;6.440;2022-09-21T12:03:03;28.90;51.00
52675;DHT22;38569;52.722;6.440;2022-09-21T12:22:27;28.20;50.90
52675;DHT22;38569;52.722;6.440;2022-09-21T12:24:54;27.90;50.60
52675;DHT22;38569;52.722;6.440;2022-09-21T12:29:59;26.80;50.80
52675;DHT22;38569;52.722;6.440;2022-09-21T12:35:18;26.50;51.40
52675;DHT22;38569;52.722;6.440;2022-09-21T12:37:58;26.10;52.00
52675;DHT22;38569;52.722;6.440;2022-09-21T12:40:42;26.10;51.80
52675;DHT22;38569;52.722;6.440;2022-09-21T12:43:25;26.00;51.70
52675;DHT22;38569;52.722;6.440;2022-09-21T12:45:56;25.90;51.70
52675;DHT22;38569;52.722;6.440;2022-09-21T12:48:35;25.70;52.40
52675;DHT22;38569;52.722;6.440;2022-09-21T12:53:40;25.70;51.90
52675;DHT22;38569;52.722;6.440;2022-09-21T12:56:11;25.40;53.20
52675;DHT22;38569;52.722;6.440;2022-09-21T12:58:46;25.40;53.00
52675;DHT22;38569;52.722;6.440;2022-09-21T13:01:43;25.40;53.50
52675;DHT22;38569;52.722;6.440;2022-09-21T13:04:32;25.40;52.30
52675;DHT22;38569;52.722;6.440;2022-09-21T13:09:48;25.00;51.70
52675;DHT22;38569;52.722;6.440;2022-09-21T13:12:27;25.20;51.40
52675;DHT22;38569;52.722;6.440;2022-09-21T13:15:02;25.10;52.20
52675;DHT22;38569;52.722;6.440;2022-09-21T13:17:30;25.20;51.50
52675;DHT22;38569;52.722;6.440;2022-09-21T13:20:15;24.90;51.60
52675;DHT22;38569;52.722;6.440;2022-09-21T13:22:42;24.60;52.80
52675;DHT22;38569;52.722;6.440;2022-09-21T13:25:20;24.40;53.20
52675;DHT22;38569;52.722;6.440;2022-09-21T13:28:38;24.50;53.30
52675;DHT22;38569;52.722;6.440;2022-09-21T13:36:44;24.60;52.50
52675;DHT22;38569;52.722;6.440;2022-09-21T13:39:15;24.50;53.10
52675;DHT22;38569;52.722;6.440;2022-09-21T13:41:41;24.70;52.70
52675;DHT22;38569;52.722;6.440;2022-09-21T13:54:45;24.50;50.70
52675;DHT22;38569;52.722;6.440;2022-09-21T14:02:53;24.70;51.80
52675;DHT22;38569;52.722;6.440;2022-09-21T14:06:06;24.70;51.10
52675;DHT22;38569;52.722;6.440;2022-09-21T14:10:54;24.60;51.20
52675;DHT22;38569;52.722;6.440;2022-09-21T14:13:25;24.50;50.20
52675;DHT22;38569;52.722;6.440;2022-09-21T14:15:52;24.30;50.70
52675;DHT22;38569;52.722;6.440;2022-09-21T14:18:33;24.30;51.30
52675;DHT22;38569;52.722;6.440;2022-09-21T14:21:08;24.30;50.40
52675;DHT22;38569;52.722;6.440;2022-09-21T14:23:38;24.00;50.50
52675;DHT22;38569;52.722;6.440;2022-09-21T14:28:56;24.10;50.80
52675;DHT22;38569;52.722;6.440;2022-09-21T14:31:28;24.20;50.10
52675;DHT22;38569;52.722;6.440;2022-09-21T14:33:58;24.20;50.10
52675;DHT22;38569;52.722;6.440;2022-09-21T14:36:35;24.00;48.80
52675;DHT22;38569;52.722;6.440;2022-09-21T14:39:29;24.00;49.90
52675;DHT22;38569;52.722;6.440;2022-09-21T14:41:59;23.90;50.60
52675;DHT22;38569;52.722;6.440;2022-09-21T14:44:28;24.00;50.10
52675;DHT22;38569;52.722;6.440;2022-09-21T14:47:29;24.10;49.10
52675;DHT22;38569;52.722;6.440;2022-09-21T14:52:40;23.50;50.30
52675;DHT22;38569;52.722;6.440;2022-09-21T15:00:43;23.80;51.20
52675;DHT22;38569;52.722;6.440;2022-09-21T15:12:12;23.30;50.70
52675;DHT22;38569;52.722;6.440;2022-09-21T15:14:54;23.30;51.20
52675;DHT22;38569;52.722;6.440;2022-09-21T15:17:25;23.30;51.30
52675;DHT22;38569;52.722;6.440;2022-09-21T15:19:57;22.80;51.60
52675;DHT22;38569;52.722;6.440;2022-09-21T15:22:25;22.70;54.10
52675;DHT22;38569;52.722;6.440;2022-09-21T15:24:57;22.40;54.10
52675;DHT22;38569;52.722;6.440;2022-09-21T15:27:28;22.40;54.20
52675;DHT22;38569;52.722;6.440;2022-09-21T15:29:59;22.50;54.20
52675;DHT22;38569;52.722;6.440;2022-09-21T15:32:42;22.60;54.30
52675;DHT22;38569;52.722;6.440;2022-09-21T15:37:42;22.60;53.50
52675;DHT22;38569;52.722;6.440;2022-09-21T15:40:24;22.50;54.40
52675;DHT22;38569;52.722;6.440;2022-09-21T15:43:17;22.40;53.10
52675;DHT22;38569;52.722;6.440;2022-09-21T15:45:57;22.00;53.70
52675;DHT22;38569;52.722;6.440;2022-09-21T15:48:37;21.80;54.90
52675;DHT22;38569;52.722;6.440;2022-09-21T15:51:20;21.90;54.70
52675;DHT22;38569;52.722;6.440;2022-09-21T15:54:15;21.90;54.30
52675;DHT22;38569;52.722;6.440;2022-09-21T15:56:44;21.80;54.80
52675;DHT22;38569;52.722;6.440;2022-09-21T15:59:16;21.60;55.10
52675;DHT22;38569;52.722;6.440;2022-09-21T16:01:49;21.50;55.60
52675;DHT22;38569;52.722;6.440;2022-09-21T16:04:21;21.30;56.10
52675;DHT22;38569;52.722;6.440;2022-09-21T16:07:39;21.10;56.70
52675;DHT22;38569;52.722;6.440;2022-09-21T16:10:37;20.90;56.80
52675;DHT22;38569;52.722;6.440;2022-09-21T16:13:22;20.80;57.70
52675;DHT22;38569;52.722;6.440;2022-09-21T16:16:12;20.50;57.70
52675;DHT22;38569;52.722;6.440;2022-09-21T16:18:45;20.30;58.30
52675;DHT22;38569;52.722;6.440;2022-09-21T16:21:21;20.00;58.50
52675;DHT22;38569;52.722;6.440;2022-09-21T16:23:50;19.60;59.00
52675;DHT22;38569;52.722;6.440;2022-09-21T16:26:23;19.30;59.10
52675;DHT22;38569;52.722;6.440;2022-09-21T16:28:56;19.10;59.70
52675;DHT22;38569;52.722;6.440;2022-09-21T16:31:32;18.90;60.60
52675;DHT22;38569;52.722;6.440;2022-09-21T16:34:21;18.70;60.80
52675;DHT22;38569;52.722;6.440;2022-09-21T16:36:48;18.60;62.00
52675;DHT22;38569;52.722;6.440;2022-09-21T16:39:16;18.40;62.30
52675;DHT22;38569;52.722;6.440;2022-09-21T16:41:48;18.30;62.70
52675;DHT22;38569;52.722;6.440;2022-09-21T16:44:17;18.10;63.90
52675;DHT22;38569;52.722;6.440;2022-09-21T16:46:58;18.00;64.20
52675;DHT22;38569;52.722;6.440;2022-09-21T16:49:26;17.90;66.80
52675;DHT22;38569;52.722;6.440;2022-09-21T16:51:54;17.80;68.00
52675;DHT22;38569;52.722;6.440;2022-09-21T16:54:21;17.60;71.60
52675;DHT22;38569;52.722;6.440;2022-09-21T16:56:52;17.30;80.40
52675;DHT22;38569;52.722;6.440;2022-09-21T16:59:19;17.10;88.70
52675;DHT22;38569;52.722;6.440;2022-09-21T17:01:48;16.90;93.70
52675;DHT22;38569;52.722;6.440;2022-09-21T17:04:16;16.70;97.20
52675;DHT22;38569;52.722;6.440;2022-09-21T17:06:42;16.50;97.80
52675;DHT22;38569;52.722;6.440;2022-09-21T17:09:36;16.40;98.80
52675;DHT22;38569;52.722;6.440;2022-09-21T17:12:12;16.30;99.90
52675;DHT22;38569;52.722;6.440;2022-09-21T17:14:39;16.10;99.90
52675;DHT22;38569;52.722;6.440;2022-09-21T17:17:11;15.80;99.90
52675;DHT22;38569;52.722;6.440;2022-09-21T17:19:37;15.60;99.90
52675;DHT22;38569;52.722;6.440;2022-09-21T17:22:08;15.50;99.90
52675;DHT22;38569;52.722;6.440;2022-09-21T17:24:42;15.30;99.90
52675;DHT22;38569;52.722;6.440;2022-09-21T17:27:10;15.00;99.90
52675;DHT22;38569;52.722;6.440;2022-09-21T17:29:37;14.80;99.90
52675;DHT22;38569;52.722;6.440;2022-09-21T17:32:04;14.70;99.90
52675;DHT22;38569;52.722;6.440;2022-09-21T17:34:33;14.50;99.90
52675;DHT22;38569;52.722;6.440;2022-09-21T17:37:00;14.20;99.90
52675;DHT22;38569;52.722;6.440;2022-09-21T17:39:25;14.00;99.90
52675;DHT22;38569;52.722;6.440;2022-09-21T17:41:55;13.90;99.90
52675;DHT22;38569;52.722;6.440;2022-09-21T17:47:40;13.60;99.90
52675;DHT22;38569;52.722;6.440;2022-09-21T17:52:39;13.20;99.90
52675;DHT22;38569;52.722;6.440;2022-09-21T17:55:24;13.10;99.90
52675;DHT22;38569;52.722;6.440;2022-09-21T18:01:06;12.70;99.90
52675;DHT22;38569;52.722;6.440;2022-09-21T18:03:35;12.60;99.90
52675;DHT22;38569;52.722;6.440;2022-09-21T18:06:09;12.50;99.90
52675;DHT22;38569;52.722;6.440;2022-09-21T18:08:37;12.30;99.90
52675;DHT22;38569;52.722;6.440;2022-09-21T18:17:03;12.00;99.90
52675;DHT22;38569;52.722;6.440;2022-09-21T18:25:30;11.60;99.90
52675;DHT22;38569;52.722;6.440;2022-09-21T18:27:58;11.50;99.90
52675;DHT22;38569;52.722;6.440;2022-09-21T18:30:24;11.40;99.90
52675;DHT22;38569;52.722;6.440;2022-09-21T18:33:19;11.30;99.90
52675;DHT22;38569;52.722;6.440;2022-09-21T18:36:09;11.20;99.90
52675;DHT22;38569;52.722;6.440;2022-09-21T18:38:43;11.00;99.90
52675;DHT22;38569;52.722;6.440;2022-09-21T18:49:39;10.60;99.90
52675;DHT22;38569;52.722;6.440;2022-09-21T18:52:31;10.50;99.90
52675;DHT22;38569;52.722;6.440;2022-09-21T18:55:01;10.40;99.90
52675;DHT22;38569;52.722;6.440;2022-09-21T18:57:27;10.30;99.90
52675;DHT22;38569;52.722;6.440;2022-09-21T18:59:57;10.20;99.90
52675;DHT22;38569;52.722;6.440;2022-09-21T19:02:24;10.10;99.90
52675;DHT22;38569;52.722;6.440;2022-09-21T19:04:50;10.00;99.90
52675;DHT22;38569;52.722;6.440;2022-09-21T19:07:26;9.90;99.90
52675;DHT22;38569;52.722;6.440;2022-09-21T19:23:59;9.40;99.90
52675;DHT22;38569;52.722;6.440;2022-09-21T19:26:32;9.30;99.90
52675;DHT22;38569;52.722;6.440;2022-09-21T19:29:40;9.20;99.90
52675;DHT22;38569;52.722;6.440;2022-09-21T19:32:14;9.20;99.90
52675;DHT22;38569;52.722;6.440;2022-09-21T19:34:41;9.10;99.90
52675;DHT22;38569;52.722;6.440;2022-09-21T19:37:07;9.10;99.90
52675;DHT22;38569;52.722;6.440;2022-09-21T19:39:34;9.00;99.90
52675;DHT22;38569;52.722;6.440;2022-09-21T19:42:17;9.00;99.90
52675;DHT22;38569;52.722;6.440;2022-09-21T19:45:03;9.00;99.90
52675;DHT22;38569;52.722;6.440;2022-09-21T19:47:50;8.90;99.90
52675;DHT22;38569;52.722;6.440;2022-09-21T19:50:29;8.80;99.90
52675;DHT22;38569;52.722;6.440;2022-09-21T19:52:57;8.70;99.90
52675;DHT22;38569;52.722;6.440;2022-09-21T19:55:43;8.70;99.90
52675;DHT22;38569;52.722;6.440;2022-09-21T19:58:28;8.60;99.90
52675;DHT22;38569;52.722;6.440;2022-09-21T20:01:16;8.60;99.90
52675;DHT22;38569;52.722;6.440;2022-09-21T20:03:44;8.50;99.90
52675;DHT22;38569;52.722;6.440;2022-09-21T20:06:28;8.50;99.90
52675;DHT22;38569;52.722;6.440;2022-09-21T20:09:22;8.40;99.90